Time;durP1;ratioP1;P1;durP2;ratioP2;P2;SDS_P1;SDS_P2;PMS_P1;PMS_P2;Temp;Humidity;BMP_temperature;BMP_pressure;BME280_temperature;BME280_humidity;BME280_pressure;Samples;Min_cycle;Max_cycle;Signal;HPM_P1;HPM_P2
2023/07/25 00:00:43;;;;;;;16.87;6.00;;;;;;;12.38;100.00;99464.78;7357985;19;20435;-49
2023/07/25 00:03:16;;;;;;;20.93;8.23;;;;;;;12.33;100.00;99466.44;7389603;19;20434;-48
2023/07/25 00:05:45;;;;;;;14.37;5.40;;;;;;;12.29;100.00;99478.44;7363683;19;20486;-51
2023/07/25 00:08:15;;;;;;;18.93;10.53;;;;;;;12.31;100.00;99471.56;7389465;19;20491;-50
2023/07/25 00:10:44;;;;;;;20.13;9.63;;;;;;;12.29;100.00;99470.69;7365602;19;20436;-49
2023/07/25 00:13:14;;;;;;;17.00;5.57;;;;;;;12.21;100.00;99470.56;7389244;19;20491;-50
2023/07/25 00:15:44;;;;;;;15.63;7.47;;;;;;;12.18;100.00;99467.06;7365907;19;20399;-49
2023/07/25 00:18:16;;;;;;;19.50;6.47;;;;;;;12.17;100.00;99473.97;7390348;19;20407;-48
2023/07/25 00:20:46;;;;;;;11.33;4.80;;;;;;;12.11;100.00;99477.31;7365177;19;20443;-48
2023/07/25 00:23:15;;;;;;;13.60;6.00;;;;;;;12.12;100.00;99476.50;7390413;19;20442;-49
2023/07/25 00:25:45;;;;;;;19.53;8.50;;;;;;;12.12;100.00;99478.22;7365126;19;20506;-48
2023/07/25 00:28:14;;;;;;;18.43;5.97;;;;;;;12.07;100.00;99479.84;7391379;19;20406;-49
2023/07/25 00:30:44;;;;;;;12.47;5.80;;;;;;;12.07;100.00;99491.06;7363845;19;20433;-49
2023/07/25 00:33:16;;;;;;;15.70;7.07;;;;;;;12.10;100.00;99491.09;7391527;19;20426;-49
2023/07/25 00:35:53;;;;;;;18.70;7.60;;;;;;;12.07;100.00;99480.72;7364499;19;20408;-49
2023/07/25 00:38:23;;;;;;;14.27;7.30;;;;;;;12.06;100.00;99488.44;7391842;19;20433;-49
2023/07/25 00:40:52;;;;;;;15.77;6.33;;;;;;;12.02;100.00;99484.91;7365683;19;20443;-50
2023/07/25 00:43:22;;;;;;;25.27;6.53;;;;;;;11.98;100.00;99491.75;7389476;19;20408;-50
2023/07/25 00:45:51;;;;;;;14.03;6.63;;;;;;;11.98;100.00;99494.34;7365678;19;20418;-52
2023/07/25 00:48:23;;;;;;;14.57;5.37;;;;;;;11.98;100.00;99502.09;7388961;19;20765;-52
2023/07/25 00:50:53;;;;;;;13.40;5.90;;;;;;;11.97;100.00;99500.38;7365013;19;20482;-49
2023/07/25 00:53:23;;;;;;;18.87;6.47;;;;;;;11.96;100.00;99500.34;7387937;19;20487;-50
2023/07/25 00:55:53;;;;;;;13.80;6.50;;;;;;;11.92;100.00;99494.25;7365574;19;20407;-52
2023/07/25 00:58:22;;;;;;;20.37;5.80;;;;;;;11.88;100.00;99492.44;7389441;19;20403;-49
2023/07/25 01:00:52;;;;;;;16.97;6.70;;;;;;;11.86;100.00;99500.16;7361675;19;20511;-50
2023/07/25 01:03:24;;;;;;;11.57;6.07;;;;;;;11.81;100.00;99495.78;7391366;19;20838;-51
2023/07/25 01:05:54;;;;;;;14.53;5.03;;;;;;;11.84;100.00;99504.44;7367207;19;20411;-49
2023/07/25 01:45:12;;;;;;;11.33;6.50;;;;;;;11.66;100.00;99517.94;7394572;19;20350;-49
2023/07/25 01:51:08;;;;;;;13.50;5.20;;;;;;;11.71;100.00;99518.00;7370819;19;20451;-50
2023/07/25 01:53:38;;;;;;;18.47;5.60;;;;;;;11.71;100.00;99518.00;7394786;19;20415;-49
2023/07/25 01:56:07;;;;;;;12.13;5.93;;;;;;;11.69;100.00;99514.53;7371670;19;20467;-48
2023/07/25 02:01:57;;;;;;;10.37;5.67;;;;;;;11.72;100.00;99518.06;7363638;19;21082;-49
2023/07/25 02:04:27;;;;;;;17.53;5.73;;;;;;;11.71;100.00;99512.84;7394282;19;20503;-49
2023/07/25 02:06:56;;;;;;;13.37;6.43;;;;;;;11.74;100.00;99524.09;7371279;19;20526;-49
2023/07/25 02:09:26;;;;;;;17.50;6.70;;;;;;;11.75;100.00;99520.66;7394262;19;20407;-48
2023/07/25 02:11:56;;;;;;;14.33;5.60;;;;;;;11.69;100.00;99517.97;7372744;19;20491;-48
2023/07/25 02:14:25;;;;;;;14.60;7.37;;;;;;;11.67;100.00;99522.25;7395957;19;20429;-48
2023/07/25 02:16:57;;;;;;;13.67;6.00;;;;;;;11.59;100.00;99523.84;7371417;19;20423;-49
2023/07/25 02:19:27;;;;;;;16.27;5.47;;;;;;;11.57;100.00;99522.94;7396621;19;20479;-48
2023/07/25 02:21:57;;;;;;;14.33;5.50;;;;;;;11.54;100.00;99515.13;7370815;19;21074;-50
2023/07/25 02:24:26;;;;;;;12.53;5.60;;;;;;;11.53;100.00;99523.75;7393293;19;20403;-49
2023/07/25 02:26:56;;;;;;;17.10;7.30;;;;;;;11.54;100.00;99526.31;7370816;19;20436;-49
2023/07/25 02:29:26;;;;;;;11.73;6.60;;;;;;;11.54;100.00;99517.72;7394066;19;20478;-49
2023/07/25 02:31:58;;;;;;;17.83;5.67;;;;;;;11.48;100.00;99509.00;7368390;19;20427;-48
2023/07/25 02:34:28;;;;;;;11.10;6.07;;;;;;;11.48;100.00;99506.44;7394319;19;20939;-49
2023/07/25 02:36:57;;;;;;;9.63;5.37;;;;;;;11.46;100.00;99510.72;7370439;19;20497;-50
2023/07/25 02:39:27;;;;;;;15.87;6.80;;;;;;;11.41;100.00;99522.66;7395580;19;20400;-49
2023/07/25 02:41:56;;;;;;;11.30;5.50;;;;;;;11.36;100.00;99521.69;7370784;19;20445;-49
2023/07/25 02:44:26;;;;;;;22.83;6.60;;;;;;;11.32;100.00;99513.03;7395525;19;20400;-49
2023/07/25 02:46:58;;;;;;;12.80;5.07;;;;;;;11.31;100.00;99519.03;7370434;19;20424;-48
2023/07/25 02:49:28;;;;;;;10.23;5.67;;;;;;;11.26;100.00;99510.34;7396203;19;20414;-48
2023/07/25 02:51:57;;;;;;;20.40;5.93;;;;;;;11.24;100.00;99513.72;7370225;19;20534;-48
2023/07/25 02:54:27;;;;;;;14.10;5.90;;;;;;;11.20;100.00;99505.94;7392755;19;20460;-49
2023/07/25 02:56:56;;;;;;;17.10;5.80;;;;;;;11.21;100.00;99510.25;7369884;19;20419;-48
2023/07/25 02:59:26;;;;;;;13.30;6.93;;;;;;;11.23;100.00;99504.25;7393142;19;20403;-48
2023/07/25 03:01:58;;;;;;;12.67;5.90;;;;;;;11.24;100.00;99498.22;7368524;19;20438;-49
2023/07/25 03:04:28;;;;;;;16.30;6.20;;;;;;;11.21;100.00;99494.75;7392739;19;20479;-50
2023/07/25 03:06:57;;;;;;;19.17;7.27;;;;;;;11.21;100.00;99501.63;7370110;19;21107;-51
2023/07/25 03:09:27;;;;;;;14.10;7.03;;;;;;;11.24;100.00;99500.81;7393373;19;20893;-48
2023/07/25 03:11:56;;;;;;;20.20;6.73;;;;;;;11.17;100.00;99505.84;7370539;19;20506;-50
2023/07/25 03:14:26;;;;;;;12.70;6.40;;;;;;;11.20;100.00;99505.06;7392032;19;20404;-48
2023/07/25 03:16:58;;;;;;;13.33;7.97;;;;;;;11.19;100.00;99509.34;7369672;19;20419;-50
2023/07/25 03:19:28;;;;;;;11.07;6.40;;;;;;;11.20;100.00;99505.06;7393340;19;20427;-50
2023/07/25 03:21:57;;;;;;;13.70;7.00;;;;;;;11.16;100.00;99498.97;7370072;19;20857;-49
2023/07/25 03:24:27;;;;;;;18.70;6.90;;;;;;;11.18;100.00;99507.59;7394138;19;20463;-50
2023/07/25 03:26:57;;;;;;;16.50;7.30;;;;;;;11.14;100.00;99510.97;7369096;19;20419;-48
2023/07/25 03:29:26;;;;;;;12.63;7.13;;;;;;;11.13;100.00;99508.34;7390144;19;20949;-50
2023/07/25 03:31:58;;;;;;;13.23;6.20;;;;;;;11.11;100.00;99504.84;7366998;19;20427;-48
2023/07/25 03:34:28;;;;;;;11.10;6.70;;;;;;;11.15;100.00;99504.09;7393333;19;21344;-48
2023/07/25 03:36:58;;;;;;;17.10;6.40;;;;;;;11.13;100.00;99508.34;7368308;19;20420;-48
2023/07/25 03:39:27;;;;;;;20.70;6.83;;;;;;;11.10;100.00;99498.84;7393888;19;20395;-49
2023/07/25 03:41:57;;;;;;;12.60;6.20;;;;;;;11.07;100.00;99509.09;7368527;19;20502;-49
2023/07/25 03:44:26;;;;;;;13.53;7.00;;;;;;;11.08;100.00;99510.84;7393313;19;20392;-51
2023/07/25 03:46:58;;;;;;;14.63;7.53;;;;;;;11.08;100.00;99516.03;7368621;19;20419;-49
2023/07/25 03:49:28;;;;;;;10.67;7.20;;;;;;;11.08;100.00;99519.44;7394145;19;20414;-49
2023/07/25 03:51:58;;;;;;;16.57;7.30;;;;;;;11.17;100.00;99525.63;7367703;19;20434;-50
2023/07/25 03:54:27;;;;;;;20.80;6.60;;;;;;;11.18;100.00;99507.59;7392697;19;20937;-49
2023/07/25 03:56:57;;;;;;;25.73;7.93;;;;;;;11.25;100.00;99510.28;7368648;19;20429;-49
2023/07/25 03:59:26;;;;;;;12.63;6.70;;;;;;;11.28;100.00;99508.63;7395466;19;20411;-49
2023/07/25 04:01:58;;;;;;;11.20;6.33;;;;;;;11.25;100.00;99508.59;7366190;19;20452;-48
2023/07/25 04:04:28;;;;;;;13.60;7.40;;;;;;;11.19;100.00;99514.50;7390406;19;20415;-49
2023/07/25 04:06:58;;;;;;;19.90;7.33;;;;;;;11.20;100.00;99500.78;7369676;19;20488;-49
2023/07/25 04:09:27;;;;;;;17.00;6.73;;;;;;;11.19;100.00;99511.91;7391649;19;20408;-50
2023/07/25 04:11:57;;;;;;;18.27;7.20;;;;;;;11.24;100.00;99509.44;7368083;19;20423;-49
2023/07/25 04:14:26;;;;;;;12.73;6.50;;;;;;;11.26;100.00;99499.13;7392149;19;20404;-49
2023/07/25 04:16:58;;;;;;;20.53;6.50;;;;;;;11.25;100.00;99487.94;7367562;19;20500;-49
2023/07/25 04:19:28;;;;;;;18.07;7.00;;;;;;;11.27;100.00;99498.31;7391530;19;20396;-49
2023/07/25 04:21:58;;;;;;;17.70;6.47;;;;;;;11.26;100.00;99491.38;7368680;19;20513;-49
2023/07/25 04:24:27;;;;;;;16.77;7.27;;;;;;;11.31;100.00;99489.75;7391149;19;21018;-49
2023/07/25 04:26:57;;;;;;;13.30;6.40;;;;;;;11.30;100.00;99488.03;7367738;19;20821;-50
2023/07/25 04:29:26;;;;;;;11.20;6.70;;;;;;;11.33;100.00;99480.31;7392176;19;20400;-49
2023/07/25 04:31:59;;;;;;;18.87;7.63;;;;;;;11.32;100.00;99486.31;7367792;19;20444;-50
2023/07/25 04:34:28;;;;;;;11.73;6.60;;;;;;;11.32;100.00;99479.47;7391627;19;20971;-49
2023/07/25 04:36:58;;;;;;;11.80;6.40;;;;;;;11.35;100.00;99476.06;7365358;19;20427;-49
2023/07/25 04:39:28;;;;;;;16.07;7.40;;;;;;;11.40;100.00;99481.31;7391643;19;20415;-49
2023/07/25 04:41:57;;;;;;;12.50;6.23;;;;;;;11.38;100.00;99470.94;7372837;19;20441;-50
2023/07/25 04:44:27;;;;;;;19.30;6.80;;;;;;;11.46;100.00;99477.13;7400729;19;20403;-49
2023/07/25 04:46:59;;;;;;;12.33;6.90;;;;;;;11.50;100.00;99467.72;7373679;19;20482;-49
2023/07/25 04:49:28;;;;;;;14.50;7.30;;;;;;;11.54;100.00;99454.00;7397289;19;20950;-49
2023/07/25 04:51:58;;;;;;;15.30;7.47;;;;;;;11.54;100.00;99446.25;7372811;19;20442;-49
2023/07/25 04:54:28;;;;;;;12.83;7.53;;;;;;;11.55;100.00;99429.94;7398872;19;20419;-49
2023/07/25 04:56:57;;;;;;;16.63;6.70;;;;;;;11.61;100.00;99434.31;7372175;19;20431;-49
2023/07/25 04:59:27;;;;;;;16.33;6.93;;;;;;;11.64;100.00;99420.59;7398251;19;20407;-49
2023/07/25 05:01:59;;;;;;;19.77;7.10;;;;;;;11.69;100.00;99422.38;7369510;19;20442;-50
2023/07/25 05:04:28;;;;;;;14.20;7.37;;;;;;;11.76;100.00;99423.38;7399393;19;20418;-49
2023/07/25 05:06:58;;;;;;;16.03;7.10;;;;;;;11.74;100.00;99415.59;7373738;19;20790;-50
2023/07/25 05:09:27;;;;;;;12.63;7.60;;;;;;;11.80;100.00;99429.44;7396782;19;20478;-49
2023/07/25 05:11:57;;;;;;;19.07;7.23;;;;;;;11.78;100.00;99420.81;7373264;19;20423;-49
2023/07/25 05:14:27;;;;;;;13.47;6.60;;;;;;;11.78;100.00;99415.66;7400125;19;20392;-48
2023/07/25 05:16:59;;;;;;;10.23;6.20;;;;;;;11.80;100.00;99413.94;7371680;19;20434;-49
2023/07/25 05:19:29;;;;;;;14.23;7.50;;;;;;;11.85;100.00;99415.75;7396700;19;20411;-49
2023/07/25 05:21:58;;;;;;;15.37;7.83;;;;;;;11.86;100.00;99414.03;7374466;19;20514;-53
2023/07/25 05:24:28;;;;;;;17.10;6.90;;;;;;;11.84;100.00;99410.56;7397764;19;21009;-50
2023/07/25 05:26:58;;;;;;;27.53;7.30;;;;;;;11.84;100.00;99415.75;7372670;19;20422;-50
2023/07/25 05:29:30;;;;;;;12.30;6.60;;;;;;;11.92;100.00;99419.28;7395499;19;20413;-49
2023/07/25 05:32:02;;;;;;;19.40;7.37;;;;;;;11.99;100.00;99409.91;7370290;19;20535;-49
2023/07/25 05:34:31;;;;;;;13.17;6.67;;;;;;;11.98;100.00;99411.63;7395441;19;20404;-50
2023/07/25 05:37:01;;;;;;;20.13;7.83;;;;;;;12.00;100.00;99422.84;7371745;19;20443;-49
2023/07/25 05:39:31;;;;;;;13.60;6.67;;;;;;;11.99;100.00;99400.44;7393026;19;20432;-50
2023/07/25 05:42:00;;;;;;;11.03;6.87;;;;;;;12.05;100.00;99407.44;7369695;19;20444;-50
2023/07/25 05:44:30;;;;;;;13.17;7.00;;;;;;;12.15;100.00;99411.00;7394743;19;21243;-50
2023/07/25 05:47:05;;;;;;;21.23;8.23;;;;;;;12.26;100.00;99422.38;7371313;19;20439;-50
2023/07/25 05:49:34;;;;;;;17.27;7.23;;;;;;;12.26;100.00;99424.13;7395140;19;20407;-51
2023/07/25 05:52:04;;;;;;;37.53;13.30;;;;;;;12.25;100.00;99412.03;7370701;19;20446;-48
2023/07/25 05:54:34;;;;;;;27.80;12.70;;;;;;;12.34;100.00;99406.97;7394487;19;20408;-49
2023/07/25 05:57:03;;;;;;;49.63;21.30;;;;;;;12.38;100.00;99419.09;7370916;19;20652;-49
2023/07/25 05:59:33;;;;;;;24.00;10.20;;;;;;;12.47;100.00;99423.53;7395056;19;20895;-51
2023/07/25 06:02:06;;;;;;;26.47;11.10;;;;;;;12.46;100.00;99424.34;7367772;19;20425;-50
2023/07/25 06:04:35;;;;;;;25.67;9.50;;;;;;;12.60;100.00;99465.94;7395410;19;20407;-51
2023/07/25 06:07:05;;;;;;;14.77;6.83;;;;;;;12.63;100.00;99486.69;7370653;19;20427;-49
2023/07/25 06:09:34;;;;;;;22.63;10.50;;;;;;;12.72;100.00;99529.91;7394801;19;21031;-49
2023/07/25 06:12:04;;;;;;;24.37;10.80;;;;;;;12.66;100.00;99579.88;7371182;19;20827;-49
2023/07/25 06:14:34;;;;;;;18.90;8.03;;;;;;;12.75;100.00;99646.41;7395316;19;20474;-49
2023/07/25 06:17:06;;;;;;;11.63;6.73;;;;;;;12.74;100.00;99743.03;7370452;19;20450;-49
2023/07/25 06:19:36;;;;;;;13.97;5.80;;;;;;;12.86;100.00;99798.44;7397113;19;20403;-50
2023/07/25 06:22:06;;;;;;;9.83;5.30;;;;;;;12.97;100.00;99817.59;7371400;19;20985;-50
2023/07/25 06:24:36;;;;;;;17.13;7.10;;;;;;;13.02;100.00;99831.50;7394980;19;20928;-50
2023/07/25 06:27:06;;;;;;;9.93;5.23;;;;;;;13.12;100.00;99849.78;7371118;19;20423;-50
2023/07/25 06:29:36;;;;;;;14.93;6.27;;;;;;;12.98;100.00;99855.63;7396255;19;20471;-50
2023/07/25 06:32:09;;;;;;;13.97;5.77;;;;;;;12.97;100.00;99859.03;7367997;19;20435;-49
2023/07/25 06:34:39;;;;;;;17.80;5.67;;;;;;;13.22;100.00;99895.69;7393957;19;21278;-49
2023/07/25 06:37:09;;;;;;;15.10;7.10;;;;;;;13.41;100.00;99891.72;7370533;19;20419;-49
2023/07/25 06:39:38;;;;;;;22.40;8.37;;;;;;;13.31;100.00;99889.81;7395029;19;20411;-49
2023/07/25 06:42:09;;;;;;;23.93;8.57;;;;;;;13.12;100.00;99867.91;7370318;19;20439;-51
2023/07/25 06:44:38;;;;;;;21.87;9.83;;;;;;;13.12;100.00;99873.09;7393923;19;20475;-49
2023/07/25 06:47:11;;;;;;;11.50;5.77;;;;;;;13.26;100.00;99906.97;7372384;19;20427;-50
2023/07/25 06:49:40;;;;;;;17.97;6.10;;;;;;;13.22;100.00;99913.84;7397940;19;20496;-49
2023/07/25 06:52:10;;;;;;;17.80;8.20;;;;;;;13.24;100.00;99922.53;7369135;19;20427;-50
2023/07/25 06:54:40;;;;;;;23.93;11.00;;;;;;;13.34;100.00;99942.53;7394528;19;20416;-50
2023/07/25 06:57:09;;;;;;;20.50;9.27;;;;;;;13.41;100.00;99964.25;7370842;19;20457;-49
2023/07/25 06:59:39;;;;;;;15.27;6.47;;;;;;;13.46;100.00;99980.81;7396633;19;20471;-50
2023/07/25 07:02:11;;;;;;;15.67;5.30;;;;;;;13.61;100.00;100003.53;7364292;19;20485;-49
2023/07/25 07:04:41;;;;;;;34.10;16.17;;;;;;;13.70;100.00;100007.09;7389688;19;20407;-50
2023/07/25 07:07:10;;;;;;;25.30;9.97;;;;;;;13.62;100.00;100010.44;7370743;19;20451;-50
2023/07/25 07:09:40;;;;;;;28.27;12.40;;;;;;;13.67;100.00;100026.06;7393988;19;20950;-51
2023/07/25 07:12:10;;;;;;;11.60;6.40;;;;;;;13.81;100.00;100047.06;7369366;19;20423;-49
2023/07/25 07:14:40;;;;;;;20.73;6.73;;;;;;;13.86;100.00;100057.50;7393194;19;20400;-47
2023/07/25 07:17:12;;;;;;;23.33;9.20;;;;;;;13.94;100.00;100078.38;7369854;19;20439;-50
2023/07/25 07:19:41;;;;;;;9.77;3.80;;;;;;;14.08;100.00;100100.22;7392130;19;20407;-49
2023/07/25 07:22:11;;;;;;;10.47;4.00;;;;;;;14.06;100.00;100114.91;7364269;19;20435;-52
2023/07/25 07:24:40;;;;;;;24.40;8.50;;;;;;;14.08;100.00;100120.09;7389868;19;20830;-50
2023/07/25 07:27:10;;;;;;;14.27;3.70;;;;;;;14.10;100.00;100131.38;7366208;19;20416;-51
2023/07/25 07:29:40;;;;;;;10.30;4.83;;;;;;;14.09;100.00;100138.28;7390966;19;20411;-49
2023/07/25 07:32:12;;;;;;;17.67;4.50;;;;;;;14.11;100.00;100144.34;7367786;19;20526;-50
2023/07/25 07:34:41;;;;;;;7.53;3.00;;;;;;;14.20;100.00;100147.97;7393032;19;20408;-49
2023/07/25 07:37:11;;;;;;;48.17;10.37;;;;;;;14.17;100.00;100159.16;7367086;19;20429;-54
2023/07/25 07:39:41;;;;;;;10.00;3.87;;;;;;;14.22;100.00;100157.53;7390238;19;20479;-48
2023/07/25 07:42:10;;;;;;;8.30;3.40;;;;;;;14.53;100.00;100162.34;7364126;19;20423;-51
2023/07/25 07:44:40;;;;;;;12.17;4.40;;;;;;;14.64;100.00;100173.78;7390710;19;21015;-48
2023/07/25 07:47:12;;;;;;;10.97;3.57;;;;;;;14.51;100.00;100174.44;7370491;19;20433;-50
2023/07/25 07:49:42;;;;;;;12.20;3.50;;;;;;;14.40;100.00;100182.03;7396153;19;20408;-48
2023/07/25 07:52:11;;;;;;;14.17;6.33;;;;;;;14.26;100.00;100184.41;7369831;19;20446;-51
2023/07/25 07:54:58;;;;;;;18.63;5.30;;;;;;;13.64;100.00;100185.00;7392648;19;20412;-58
2023/07/25 07:57:28;;;;;;;10.67;4.00;;;;;;;13.45;100.00;100188.91;7369797;19;20431;-57
2023/07/25 07:59:57;;;;;;;13.13;5.47;;;;;;;13.52;100.00;100169.19;7393295;19;20406;-58
2023/07/25 08:02:30;;;;;;;19.27;5.90;;;;;;;13.47;100.00;100144.91;7366938;19;20506;-55
2023/07/25 08:04:59;;;;;;;17.00;5.93;;;;;;;13.50;100.00;100114.75;7395819;19;20486;-54
2023/07/25 08:07:29;;;;;;;17.40;4.40;;;;;;;13.57;100.00;100078.56;7369246;19;20464;-56
2023/07/25 08:09:59;;;;;;;9.97;5.47;;;;;;;13.64;100.00;100050.22;7392864;19;20411;-56
2023/07/25 09:11:25;;;;;;;6.77;2.83;;;;;;;14.14;100.00;100086.47;7395785;19;20417;-37
2023/07/25 09:13:54;;;;;;;11.23;4.37;;;;;;;14.28;100.00;100078.91;7425331;19;20444;-37
2023/07/25 09:32:55;;;;;;;5.22;3.33;;;;;;;14.23;100.00;100124.66;7238053;19;2921657;-38
2023/07/25 09:35:25;;;;;;;6.40;2.60;;;;;;;14.21;100.00;100131.56;7424440;19;20150;-37
2023/07/25 09:37:56;;;;;;;6.23;2.83;;;;;;;14.05;100.00;100131.28;7398959;19;20823;-36
2023/07/25 09:40:26;;;;;;;10.00;3.57;;;;;;;14.08;100.00;100123.56;7425186;19;20411;-37
2023/07/25 09:42:55;;;;;;;5.23;3.30;;;;;;;14.02;100.00;100110.50;7397023;19;20485;-37
2023/07/25 09:45:25;;;;;;;7.27;2.97;;;;;;;14.02;100.00;100105.31;7421284;19;20390;-36
2023/07/25 09:47:58;;;;;;;7.77;2.90;;;;;;;14.23;100.00;100102.19;7398009;19;20490;-38
2023/07/25 09:50:28;;;;;;;7.00;2.60;;;;;;;14.52;100.00;100087.94;7421693;19;20394;-37
2023/07/25 09:53:03;;;;;;;5.87;3.93;;;;;;;14.64;100.00;100098.50;7397088;19;20482;-37
2023/07/25 09:55:32;;;;;;;12.10;3.07;;;;;;;14.87;100.00;100104.91;7408276;19;20916;-37
2023/07/25 09:58:02;;;;;;;7.00;3.67;;;;;;;15.04;100.00;100097.31;7369634;19;20407;-36
2023/07/25 10:00:32;;;;;;;10.43;3.70;;;;;;;15.28;100.00;100093.28;7392791;19;20773;-37
2023/07/25 10:03:04;;;;;;;7.63;3.27;;;;;;;15.43;100.00;100106.44;7364949;19;20411;-38
2023/07/25 10:05:34;;;;;;;6.10;2.70;;;;;;;15.54;100.00;100098.78;7393118;19;20400;-39
2023/07/25 10:08:04;;;;;;;6.03;3.33;;;;;;;15.52;100.00;100101.38;7372154;19;20980;-39
2023/07/25 10:10:34;;;;;;;9.07;2.83;;;;;;;15.58;100.00;100133.50;7392544;19;20396;-36
2023/07/25 10:13:03;;;;;;;8.30;3.50;;;;;;;15.67;100.00;100151.78;7375062;19;21064;-36
2023/07/25 10:15:34;;;;;;;7.60;3.50;;;;;;;15.72;100.00;100175.22;7392250;19;20737;-38
2023/07/25 10:18:18;;;;;;;6.80;2.80;;;;;;;15.80;100.00;100192.66;7372308;19;20963;-37
2023/07/25 10:20:48;;;;;;;7.43;3.20;;;;;;;16.03;100.00;100206.81;7369633;19;21004;-37
2023/07/25 10:23:17;;;;;;;7.13;2.83;;;;;;;16.15;100.00;100203.50;7390508;19;20475;-37
2023/07/25 10:25:47;;;;;;;4.33;2.70;;;;;;;16.08;100.00;100209.47;7367778;19;20398;-40
2023/07/25 10:28:23;;;;;;;8.03;2.60;;;;;;;15.86;100.00;100248.22;7395238;19;20416;-37
2023/07/25 10:30:53;;;;;;;5.30;2.20;;;;;;;16.01;100.00;100266.63;7367722;19;20412;-37
2023/07/25 10:33:26;;;;;;;8.10;3.00;;;;;;;15.90;100.00;100268.22;7388199;19;20443;-37
2023/07/25 10:35:56;;;;;;;7.90;2.87;;;;;;;15.83;100.00;100282.00;7366074;19;20400;-36
2023/07/25 10:38:33;;;;;;;8.00;2.87;;;;;;;16.03;100.00;100322.19;7390891;19;20395;-36
2023/07/25 10:41:03;;;;;;;4.80;2.50;;;;;;;16.28;100.00;100351.09;7367902;19;20401;-37
2023/07/25 10:44:01;;;;;;;7.40;2.43;;;;;;;16.54;100.00;100365.25;7389375;19;20983;-38
2023/07/25 10:46:33;;;;;;;6.43;2.43;;;;;;;16.45;100.00;100360.81;7369284;19;20407;-37
2023/07/25 10:49:07;;;;;;;12.73;3.50;;;;;;;16.18;100.00;100367.44;7393468;19;20384;-38
2023/07/25 10:51:51;;;;;;;7.83;2.40;;;;;;;15.82;100.00;100340.06;7367735;19;20407;-37
2023/07/25 10:54:23;;;;;;;10.53;2.63;;;;;;;15.77;100.00;100381.63;7390710;19;20486;-36
2023/07/25 10:57:17;;;;;;;7.47;2.20;;;;;;;15.99;100.00;100418.41;7367346;19;20395;-37
2023/07/25 11:00:00;;;;;;;4.17;1.60;;;;;;;16.55;100.00;100440.78;7391438;19;20420;-37
2023/07/25 11:02:31;;;;;;;6.67;1.87;;;;;;;16.28;100.00;100447.41;7364915;19;20945;-38
2023/07/25 11:05:25;;;;;;;5.83;2.27;;;;;;;16.54;100.00;100462.50;7390292;19;20980;-37
2023/07/25 11:07:56;;;;;;;7.13;1.93;;;;;;;16.76;100.00;100472.28;7365006;19;20435;-36
2023/07/25 11:10:28;;;;;;;11.37;2.57;;;;;;;17.22;100.00;100477.16;7390586;19;20509;-37
2023/07/25 11:12:59;;;;;;;18.53;7.90;;;;;;;17.38;100.00;100489.47;7369453;19;20419;-37
2023/07/25 11:15:29;;;;;;;6.10;1.97;;;;;;;17.25;100.00;100495.44;7396617;19;20446;-37
2023/07/25 11:18:15;;;;;;;11.27;4.73;;;;;;;17.41;100.00;100492.13;7372978;19;20431;-37
2023/07/25 11:21:00;;;;;;;7.97;2.23;;;;;;;17.76;100.00;100492.41;7369778;19;20407;-37
2023/07/25 11:23:30;;;;;;;10.30;2.73;;;;;;;17.83;100.00;100483.75;7391967;19;20415;-37
2023/07/25 11:26:00;;;;;;;16.60;5.13;;;;;;;17.86;100.00;100477.69;7370014;19;20393;-37
2023/07/25 11:28:31;;;;;;;9.93;4.10;;;;;;;17.95;100.00;100489.06;7393036;19;20412;-37
2023/07/25 11:31:01;;;;;;;7.60;3.03;;;;;;;17.78;100.00;100490.66;7370461;19;20423;-36
2023/07/25 11:33:38;;;;;;;6.23;1.90;;;;;;;17.87;100.00;100500.31;7392040;19;20458;-37
2023/07/25 11:36:10;;;;;;;57.37;22.20;;;;;;;17.79;100.00;100489.84;7369370;19;20836;-37
2023/07/25 11:38:40;;;;;;;9.77;2.03;;;;;;;17.83;100.00;100486.34;7393111;19;20411;-37
2023/07/25 11:41:11;;;;;;;9.87;4.37;;;;;;;17.97;100.00;100480.38;7368257;19;20403;-37
2023/07/25 11:43:41;;;;;;;22.80;10.50;;;;;;;17.84;100.00;100485.50;7392468;19;20444;-37
2023/07/25 11:46:17;;;;;;;13.50;4.43;;;;;;;17.61;100.00;100473.16;7367628;19;20395;-36
2023/07/25 11:48:47;;;;;;;44.07;18.33;;;;;;;17.57;100.00;100444.44;7393317;19;20482;-38
2023/07/25 11:51:20;;;;;;;8.97;3.23;;;;;;;17.89;100.00;100444.66;7368217;19;20399;-37
2023/07/25 11:53:50;;;;;;;7.57;1.73;;;;;;;18.36;100.00;100444.97;7392721;19;20447;-36
2023/07/25 11:56:19;;;;;;;15.43;6.10;;;;;;;18.49;100.00;100428.47;7367348;19;20954;-36
2023/07/25 11:58:50;;;;;;;5.77;2.23;;;;;;;18.58;100.00;100418.91;7393233;19;20428;-36
2023/07/25 12:01:20;;;;;;;10.70;4.40;;;;;;;18.66;100.00;100430.25;7364139;19;20399;-36
2023/07/25 12:03:50;;;;;;;17.53;7.33;;;;;;;18.38;100.00;100404.06;7392310;19;20436;-36
2023/07/25 12:06:28;;;;;;;9.57;3.47;;;;;;;18.40;100.00;100329.19;7367643;19;20395;-38
2023/07/25 12:12:15;;;;;;;11.30;5.40;;;;;;;18.13;100.00;100089.81;7358888;19;20439;-37
2023/07/25 12:14:55;;;;;;;5.57;2.07;;;;;;;18.47;100.00;99982.75;7391891;19;20451;-37
2023/07/25 12:17:25;;;;;;;12.53;5.10;;;;;;;18.49;100.00;100005.38;7365696;19;20844;-37
2023/07/25 12:19:55;;;;;;;11.27;3.80;;;;;;;18.63;100.00;100017.50;7392704;19;20411;-38
2023/07/25 12:22:27;;;;;;;11.60;4.37;;;;;;;18.48;100.00;100003.63;7364799;19;20427;-37
2023/07/25 12:24:57;;;;;;;6.97;1.63;;;;;;;18.72;100.00;99970.44;7392201;19;20991;-38
2023/07/25 12:27:26;;;;;;;8.80;3.00;;;;;;;18.75;100.00;99938.19;7364633;19;20434;-37
2023/07/25 12:29:56;;;;;;;4.83;1.20;;;;;;;18.92;100.00;99857.09;7395248;19;20421;-38
2023/07/25 12:32:26;;;;;;;17.10;7.97;;;;;;;19.07;100.00;99976.38;7364430;19;20427;-40
2023/07/25 12:35:02;;;;;;;12.73;5.20;;;;;;;19.51;100.00;99903.75;7390520;19;20431;-38
2023/07/25 12:37:34;;;;;;;21.20;9.43;;;;;;;19.70;100.00;99777.97;7365991;19;20494;-37
2023/07/25 13:06:34;;;;;;;11.40;3.47;;;;;;;19.49;100.00;99589.00;7356026;19;20386;-38
2023/07/25 13:09:04;;;;;;;8.07;2.83;;;;;;;19.34;100.00;99610.13;7388396;19;20423;-38
2023/07/25 13:11:34;;;;;;;10.80;2.57;;;;;;;18.83;100.00;99559.31;7363485;19;20452;-38
2023/07/25 13:14:03;;;;;;;13.70;4.90;;;;;;;19.17;100.00;99611.19;7388043;19;20789;-40
2023/07/25 13:16:33;;;;;;;5.93;2.70;;;;;;;19.56;100.00;99616.84;7364040;19;20443;-39
2023/07/25 13:19:03;;;;;;;9.07;2.63;;;;;;;19.33;100.00;99605.81;7389725;19;20403;-38
2023/07/25 13:21:35;;;;;;;6.43;1.43;;;;;;;19.13;100.00;99552.03;7363978;19;20475;-38
2023/07/25 13:24:05;;;;;;;5.83;2.70;;;;;;;18.70;100.00;99546.38;7388197;19;20450;-39
2023/07/25 13:26:35;;;;;;;8.40;2.40;;;;;;;19.16;100.00;99567.66;7363577;19;20405;-37
2023/07/25 13:29:04;;;;;;;16.17;5.50;;;;;;;19.49;100.00;99586.38;7388678;19;20767;-38
2023/07/25 13:31:34;;;;;;;14.33;5.87;;;;;;;19.66;100.00;99587.91;7367726;19;20423;-38
2023/07/25 13:34:04;;;;;;;10.53;3.50;;;;;;;19.49;100.00;99570.69;7392872;19;20439;-40
2023/07/25 13:36:36;;;;;;;11.30;1.50;;;;;;;19.74;100.00;99606.97;7369885;19;20402;-41
2023/07/25 13:39:05;;;;;;;10.57;3.17;;;;;;;19.20;100.00;99548.44;7395033;19;20415;-39
2023/07/25 13:41:35;;;;;;;7.47;2.20;;;;;;;19.06;100.00;99561.69;7367813;19;20403;-38
2023/07/25 13:44:05;;;;;;;22.23;11.60;;;;;;;19.53;100.00;99613.41;7394017;19;21038;-38
2023/07/25 13:46:35;;;;;;;12.23;2.43;;;;;;;19.46;100.00;99602.13;7369417;19;20780;-38
2023/07/25 13:49:05;;;;;;;5.13;1.50;;;;;;;19.25;100.00;99609.38;7394940;19;20407;-38
2023/07/25 13:51:37;;;;;;;7.63;2.47;;;;;;;19.42;100.00;99605.66;7369799;19;20407;-38
2023/07/25 13:54:07;;;;;;;7.50;2.93;;;;;;;19.65;100.00;99587.03;7393942;19;20532;-38
2023/07/25 13:56:36;;;;;;;5.60;2.20;;;;;;;19.96;100.00;99588.38;7370320;19;20420;-38
2023/07/25 13:59:07;;;;;;;23.53;8.93;;;;;;;20.16;100.00;99546.19;7395081;19;20407;-38
2023/07/25 14:01:36;;;;;;;6.13;1.10;;;;;;;19.77;100.00;99486.59;7367234;19;20399;-43